sensor_id;sensor_type;location;lat;lon;timestamp;P1;P2;P0
64627;PMS5003;59036;50.960;0.314;2022-11-14T00:01:43;54;45;
64627;PMS5003;59036;50.960;0.314;2022-11-14T00:04:11;56;45;
64627;PMS5003;59036;50.960;0.314;2022-11-14T00:06:38;52;42;
64627;PMS5003;59036;50.960;0.314;2022-11-14T00:09:05;56;47;
64627;PMS5003;59036;50.960;0.314;2022-11-14T00:11:32;54;42;
64627;PMS5003;59036;50.960;0.314;2022-11-14T00:13:59;60;47;
64627;PMS5003;59036;50.960;0.314;2022-11-14T00:16:26;60;47;
64627;PMS5003;59036;50.960;0.314;2022-11-14T00:18:53;54;46;
64627;PMS5003;59036;50.960;0.314;2022-11-14T00:21:20;64;49;
64627;PMS5003;59036;50.960;0.314;2022-11-14T00:23:47;53;46;
64627;PMS5003;59036;50.960;0.314;2022-11-14T00:26:15;44;40;
64627;PMS5003;59036;50.960;0.314;2022-11-14T00:28:42;48;44;
64627;PMS5003;59036;50.960;0.314;2022-11-14T00:31:09;49;45;
64627;PMS5003;59036;50.960;0.314;2022-11-14T00:33:36;42;40;
64627;PMS5003;59036;50.960;0.314;2022-11-14T00:36:04;51;46;
64627;PMS5003;59036;50.960;0.314;2022-11-14T00:38:31;43;37;
64627;PMS5003;59036;50.960;0.314;2022-11-14T00:40:58;55;47;
64627;PMS5003;59036;50.960;0.314;2022-11-14T00:43:25;47;40;
64627;PMS5003;59036;50.960;0.314;2022-11-14T00:45:52;42;40;
64627;PMS5003;59036;50.960;0.314;2022-11-14T00:48:20;51;48;
64627;PMS5003;59036;50.960;0.314;2022-11-14T00:50:47;48;40;
64627;PMS5003;59036;50.960;0.314;2022-11-14T00:53:15;42;40;
64627;PMS5003;59036;50.960;0.314;2022-11-14T00:55:42;39;38;
64627;PMS5003;59036;50.960;0.314;2022-11-14T00:58:09;42;41;
64627;PMS5003;59036;50.960;0.314;2022-11-14T01:00:36;43;42;
64627;PMS5003;59036;50.960;0.314;2022-11-14T01:03:03;40;38;
64627;PMS5003;59036;50.960;0.314;2022-11-14T01:05:30;44;40;
64627;PMS5003;59036;50.960;0.314;2022-11-14T01:07:57;52;46;
64627;PMS5003;59036;50.960;0.314;2022-11-14T01:10:24;41;37;
64627;PMS5003;59036;50.960;0.314;2022-11-14T01:12:51;50;41;
64627;PMS5003;59036;50.960;0.314;2022-11-14T01:15:18;51;45;
64627;PMS5003;59036;50.960;0.314;2022-11-14T01:17:46;44;40;
64627;PMS5003;59036;50.960;0.314;2022-11-14T01:20:13;50;41;
64627;PMS5003;59036;50.960;0.314;2022-11-14T01:22:41;45;37;
64627;PMS5003;59036;50.960;0.314;2022-11-14T01:25:08;46;43;
64627;PMS5003;59036;50.960;0.314;2022-11-14T01:27:35;51;43;
64627;PMS5003;59036;50.960;0.314;2022-11-14T01:30:02;44;42;
64627;PMS5003;59036;50.960;0.314;2022-11-14T01:32:30;45;44;
64627;PMS5003;59036;50.960;0.314;2022-11-14T01:34:57;50;45;
64627;PMS5003;59036;50.960;0.314;2022-11-14T01:37:24;52;47;
64627;PMS5003;59036;50.960;0.314;2022-11-14T01:39:51;51;46;
64627;PMS5003;59036;50.960;0.314;2022-11-14T01:42:19;45;44;
64627;PMS5003;59036;50.960;0.314;2022-11-14T01:44:47;55;54;
64627;PMS5003;59036;50.960;0.314;2022-11-14T01:47:16;49;44;
64627;PMS5003;59036;50.960;0.314;2022-11-14T01:49:47;51;46;
64627;PMS5003;59036;50.960;0.314;2022-11-14T01:52:19;46;42;
64627;PMS5003;59036;50.960;0.314;2022-11-14T01:54:50;56;48;
64627;PMS5003;59036;50.960;0.314;2022-11-14T01:57:20;51;49;
64627;PMS5003;59036;50.960;0.314;2022-11-14T01:59:52;51;48;
64627;PMS5003;59036;50.960;0.314;2022-11-14T02:02:24;53;50;
64627;PMS5003;59036;50.960;0.314;2022-11-14T02:04:54;59;51;
64627;PMS5003;59036;50.960;0.314;2022-11-14T02:07:26;55;51;
64627;PMS5003;59036;50.960;0.314;2022-11-14T02:09:58;53;48;
64627;PMS5003;59036;50.960;0.314;2022-11-14T02:12:28;50;45;
64627;PMS5003;59036;50.960;0.314;2022-11-14T02:14:55;54;49;
64627;PMS5003;59036;50.960;0.314;2022-11-14T02:17:24;56;50;
64627;PMS5003;59036;50.960;0.314;2022-11-14T02:19:53;52;49;
64627;PMS5003;59036;50.960;0.314;2022-11-14T02:22:21;53;50;
64627;PMS5003;59036;50.960;0.314;2022-11-14T02:24:49;49;45;
64627;PMS5003;59036;50.960;0.314;2022-11-14T02:27:16;52;49;
64627;PMS5003;59036;50.960;0.314;2022-11-14T02:29:43;57;54;
64627;PMS5003;59036;50.960;0.314;2022-11-14T02:32:10;53;50;
64627;PMS5003;59036;50.960;0.314;2022-11-14T02:34:38;50;45;
64627;PMS5003;59036;50.960;0.314;2022-11-14T02:37:05;56;52;
64627;PMS5003;59036;50.960;0.314;2022-11-14T02:39:32;53;50;
64627;PMS5003;59036;50.960;0.314;2022-11-14T02:42:00;49;46;
64627;PMS5003;59036;50.960;0.314;2022-11-14T02:44:27;54;50;
64627;PMS5003;59036;50.960;0.314;2022-11-14T02:46:54;58;51;
64627;PMS5003;59036;50.960;0.314;2022-11-14T02:49:21;57;51;
64627;PMS5003;59036;50.960;0.314;2022-11-14T02:51:48;49;48;
64627;PMS5003;59036;50.960;0.314;2022-11-14T02:54:15;57;54;
64627;PMS5003;59036;50.960;0.314;2022-11-14T02:56:42;52;49;
64627;PMS5003;59036;50.960;0.314;2022-11-14T02:59:09;54;50;
64627;PMS5003;59036;50.960;0.314;2022-11-14T03:01:36;51;48;
64627;PMS5003;59036;50.960;0.314;2022-11-14T03:04:04;53;50;
64627;PMS5003;59036;50.960;0.314;2022-11-14T03:06:31;57;55;
64627;PMS5003;59036;50.960;0.314;2022-11-14T03:08:59;60;53;
64627;PMS5003;59036;50.960;0.314;2022-11-14T03:11:26;53;47;
64627;PMS5003;59036;50.960;0.314;2022-11-14T03:13:53;50;48;
64627;PMS5003;59036;50.960;0.314;2022-11-14T03:16:20;53;48;
64627;PMS5003;59036;50.960;0.314;2022-11-14T03:18:47;52;49;
64627;PMS5003;59036;50.960;0.314;2022-11-14T03:21:15;52;49;
64627;PMS5003;59036;50.960;0.314;2022-11-14T03:23:43;55;52;
64627;PMS5003;59036;50.960;0.314;2022-11-14T03:26:11;51;50;
64627;PMS5003;59036;50.960;0.314;2022-11-14T03:28:40;53;49;
64627;PMS5003;59036;50.960;0.314;2022-11-14T03:31:09;54;51;
64627;PMS5003;59036;50.960;0.314;2022-11-14T03:33:38;55;50;
64627;PMS5003;59036;50.960;0.314;2022-11-14T03:36:06;52;50;
64627;PMS5003;59036;50.960;0.314;2022-11-14T03:38:33;57;55;
64627;PMS5003;59036;50.960;0.314;2022-11-14T03:41:01;50;48;
64627;PMS5003;59036;50.960;0.314;2022-11-14T03:43:29;58;56;
64627;PMS5003;59036;50.960;0.314;2022-11-14T03:45:57;56;51;
64627;PMS5003;59036;50.960;0.314;2022-11-14T03:48:24;62;60;
64627;PMS5003;59036;50.960;0.314;2022-11-14T03:50:52;53;50;
64627;PMS5003;59036;50.960;0.314;2022-11-14T03:53:19;55;47;
64627;PMS5003;59036;50.960;0.314;2022-11-14T03:55:46;52;49;
64627;PMS5003;59036;50.960;0.314;2022-11-14T03:58:14;48;47;
64627;PMS5003;59036;50.960;0.314;2022-11-14T04:00:41;50;48;
64627;PMS5003;59036;50.960;0.314;2022-11-14T04:03:08;53;50;
64627;PMS5003;59036;50.960;0.314;2022-11-14T04:05:35;52;48;
64627;PMS5003;59036;50.960;0.314;2022-11-14T04:08:03;53;52;
64627;PMS5003;59036;50.960;0.314;2022-11-14T04:10:31;47;45;
64627;PMS5003;59036;50.960;0.314;2022-11-14T04:12:58;54;53;
64627;PMS5003;59036;50.960;0.314;2022-11-14T04:15:25;56;50;
64627;PMS5003;59036;50.960;0.314;2022-11-14T04:17:53;56;54;
64627;PMS5003;59036;50.960;0.314;2022-11-14T04:20:20;55;50;
64627;PMS5003;59036;50.960;0.314;2022-11-14T04:22:47;56;51;
64627;PMS5003;59036;50.960;0.314;2022-11-14T04:25:15;61;54;
64627;PMS5003;59036;50.960;0.314;2022-11-14T04:27:42;58;50;
64627;PMS5003;59036;50.960;0.314;2022-11-14T04:30:10;69;59;
64627;PMS5003;59036;50.960;0.314;2022-11-14T04:32:38;64;51;
64627;PMS5003;59036;50.960;0.314;2022-11-14T04:35:05;60;54;
64627;PMS5003;59036;50.960;0.314;2022-11-14T04:37:33;62;55;
64627;PMS5003;59036;50.960;0.314;2022-11-14T04:39:59;64;59;
64627;PMS5003;59036;50.960;0.314;2022-11-14T04:42:26;60;55;
64627;PMS5003;59036;50.960;0.314;2022-11-14T04:44:53;58;55;
64627;PMS5003;59036;50.960;0.314;2022-11-14T04:47:20;58;52;
64627;PMS5003;59036;50.960;0.314;2022-11-14T04:49:48;65;54;
64627;PMS5003;59036;50.960;0.314;2022-11-14T04:52:15;54;49;
64627;PMS5003;59036;50.960;0.314;2022-11-14T04:54:43;61;57;
64627;PMS5003;59036;50.960;0.314;2022-11-14T04:57:09;58;50;
64627;PMS5003;59036;50.960;0.314;2022-11-14T04:59:37;61;54;
64627;PMS5003;59036;50.960;0.314;2022-11-14T05:02:04;61;57;
64627;PMS5003;59036;50.960;0.314;2022-11-14T05:04:31;57;50;
64627;PMS5003;59036;50.960;0.314;2022-11-14T05:06:58;60;55;
64627;PMS5003;59036;50.960;0.314;2022-11-14T05:09:25;61;56;
64627;PMS5003;59036;50.960;0.314;2022-11-14T05:11:52;61;56;
64627;PMS5003;59036;50.960;0.314;2022-11-14T05:14:19;61;53;
64627;PMS5003;59036;50.960;0.314;2022-11-14T05:16:46;57;54;
64627;PMS5003;59036;50.960;0.314;2022-11-14T05:19:13;65;57;
64627;PMS5003;59036;50.960;0.314;2022-11-14T05:21:40;47;44;
64627;PMS5003;59036;50.960;0.314;2022-11-14T05:24:07;53;52;
64627;PMS5003;59036;50.960;0.314;2022-11-14T05:26:34;49;45;
64627;PMS5003;59036;50.960;0.314;2022-11-14T05:29:01;62;52;
64627;PMS5003;59036;50.960;0.314;2022-11-14T05:31:29;54;49;
64627;PMS5003;59036;50.960;0.314;2022-11-14T05:33:57;56;52;
64627;PMS5003;59036;50.960;0.314;2022-11-14T05:36:24;68;54;
64627;PMS5003;59036;50.960;0.314;2022-11-14T05:38:51;51;48;
64627;PMS5003;59036;50.960;0.314;2022-11-14T05:41:19;52;47;
64627;PMS5003;59036;50.960;0.314;2022-11-14T05:43:46;51;45;
64627;PMS5003;59036;50.960;0.314;2022-11-14T05:46:14;55;51;
64627;PMS5003;59036;50.960;0.314;2022-11-14T05:48:42;64;56;
64627;PMS5003;59036;50.960;0.314;2022-11-14T05:51:10;58;55;
64627;PMS5003;59036;50.960;0.314;2022-11-14T05:53:38;58;55;
64627;PMS5003;59036;50.960;0.314;2022-11-14T05:56:06;58;54;
64627;PMS5003;59036;50.960;0.314;2022-11-14T05:58:35;50;46;
64627;PMS5003;59036;50.960;0.314;2022-11-14T06:01:04;54;49;
64627;PMS5003;59036;50.960;0.314;2022-11-14T06:03:32;57;51;
64627;PMS5003;59036;50.960;0.314;2022-11-14T06:06:02;57;46;
64627;PMS5003;59036;50.960;0.314;2022-11-14T06:08:31;53;50;
64627;PMS5003;59036;50.960;0.314;2022-11-14T06:11:01;52;47;
64627;PMS5003;59036;50.960;0.314;2022-11-14T06:13:30;47;40;
64627;PMS5003;59036;50.960;0.314;2022-11-14T06:15:58;50;44;
64627;PMS5003;59036;50.960;0.314;2022-11-14T06:18:25;47;44;
64627;PMS5003;59036;50.960;0.314;2022-11-14T06:20:53;55;46;
64627;PMS5003;59036;50.960;0.314;2022-11-14T06:23:24;48;44;
64627;PMS5003;59036;50.960;0.314;2022-11-14T06:25:51;46;43;
64627;PMS5003;59036;50.960;0.314;2022-11-14T06:28:17;52;46;
64627;PMS5003;59036;50.960;0.314;2022-11-14T06:30:44;55;49;
64627;PMS5003;59036;50.960;0.314;2022-11-14T06:33:12;53;47;
64627;PMS5003;59036;50.960;0.314;2022-11-14T06:35:39;59;50;
64627;PMS5003;59036;50.960;0.314;2022-11-14T06:38:06;51;46;
64627;PMS5003;59036;50.960;0.314;2022-11-14T06:40:34;48;47;
64627;PMS5003;59036;50.960;0.314;2022-11-14T06:43:01;49;44;
64627;PMS5003;59036;50.960;0.314;2022-11-14T06:45:28;52;48;
64627;PMS5003;59036;50.960;0.314;2022-11-14T06:47:57;49;46;
64627;PMS5003;59036;50.960;0.314;2022-11-14T06:50:24;54;49;
64627;PMS5003;59036;50.960;0.314;2022-11-14T06:52:52;61;53;
64627;PMS5003;59036;50.960;0.314;2022-11-14T06:55:18;50;46;
64627;PMS5003;59036;50.960;0.314;2022-11-14T06:57:51;50;44;
64627;PMS5003;59036;50.960;0.314;2022-11-14T07:00:19;48;45;
64627;PMS5003;59036;50.960;0.314;2022-11-14T07:02:47;50;46;
64627;PMS5003;59036;50.960;0.314;2022-11-14T07:05:14;51;48;
64627;PMS5003;59036;50.960;0.314;2022-11-14T07:07:42;53;47;
64627;PMS5003;59036;50.960;0.314;2022-11-14T07:10:09;45;43;
64627;PMS5003;59036;50.960;0.314;2022-11-14T07:12:37;61;55;
64627;PMS5003;59036;50.960;0.314;2022-11-14T07:15:04;55;49;
64627;PMS5003;59036;50.960;0.314;2022-11-14T07:17:33;51;48;
64627;PMS5003;59036;50.960;0.314;2022-11-14T07:20:00;52;46;
64627;PMS5003;59036;50.960;0.314;2022-11-14T07:22:27;49;39;
64627;PMS5003;59036;50.960;0.314;2022-11-14T07:24:54;53;46;
64627;PMS5003;59036;50.960;0.314;2022-11-14T07:27:21;57;49;
64627;PMS5003;59036;50.960;0.314;2022-11-14T07:29:48;53;48;
64627;PMS5003;59036;50.960;0.314;2022-11-14T07:32:16;58;48;
64627;PMS5003;59036;50.960;0.314;2022-11-14T07:34:43;64;52;
64627;PMS5003;59036;50.960;0.314;2022-11-14T07:37:10;50;45;
64627;PMS5003;59036;50.960;0.314;2022-11-14T07:39:37;50;44;
64627;PMS5003;59036;50.960;0.314;2022-11-14T07:42:04;66;53;
64627;PMS5003;59036;50.960;0.314;2022-11-14T07:44:31;58;52;
64627;PMS5003;59036;50.960;0.314;2022-11-14T07:46:58;64;59;
64627;PMS5003;59036;50.960;0.314;2022-11-14T07:49:25;59;52;
64627;PMS5003;59036;50.960;0.314;2022-11-14T07:51:52;66;63;
64627;PMS5003;59036;50.960;0.314;2022-11-14T07:54:19;56;50;
64627;PMS5003;59036;50.960;0.314;2022-11-14T07:56:46;56;49;
64627;PMS5003;59036;50.960;0.314;2022-11-14T07:59:14;52;46;
64627;PMS5003;59036;50.960;0.314;2022-11-14T08:01:41;48;44;
64627;PMS5003;59036;50.960;0.314;2022-11-14T08:04:09;54;50;
64627;PMS5003;59036;50.960;0.314;2022-11-14T08:06:36;56;52;
64627;PMS5003;59036;50.960;0.314;2022-11-14T08:09:03;62;51;
64627;PMS5003;59036;50.960;0.314;2022-11-14T08:11:30;60;50;
64627;PMS5003;59036;50.960;0.314;2022-11-14T08:13:58;54;48;
64627;PMS5003;59036;50.960;0.314;2022-11-14T08:16:25;50;47;
64627;PMS5003;59036;50.960;0.314;2022-11-14T08:18:52;58;52;
64627;PMS5003;59036;50.960;0.314;2022-11-14T08:21:19;53;48;
64627;PMS5003;59036;50.960;0.314;2022-11-14T08:23:46;48;47;
64627;PMS5003;59036;50.960;0.314;2022-11-14T08:26:13;51;48;
64627;PMS5003;59036;50.960;0.314;2022-11-14T08:28:40;47;45;
64627;PMS5003;59036;50.960;0.314;2022-11-14T08:31:08;51;46;
64627;PMS5003;59036;50.960;0.314;2022-11-14T08:33:35;54;47;
64627;PMS5003;59036;50.960;0.314;2022-11-14T08:36:02;55;51;
64627;PMS5003;59036;50.960;0.314;2022-11-14T08:38:31;53;47;
64627;PMS5003;59036;50.960;0.314;2022-11-14T08:40:59;50;44;
64627;PMS5003;59036;50.960;0.314;2022-11-14T08:43:27;53;46;
64627;PMS5003;59036;50.960;0.314;2022-11-14T08:45:56;45;43;
64627;PMS5003;59036;50.960;0.314;2022-11-14T08:48:23;53;48;
64627;PMS5003;59036;50.960;0.314;2022-11-14T08:50:50;53;46;
64627;PMS5003;59036;50.960;0.314;2022-11-14T08:53:17;57;52;
64627;PMS5003;59036;50.960;0.314;2022-11-14T08:55:45;47;45;
64627;PMS5003;59036;50.960;0.314;2022-11-14T08:58:12;47;44;
64627;PMS5003;59036;50.960;0.314;2022-11-14T09:00:39;48;46;
64627;PMS5003;59036;50.960;0.314;2022-11-14T09:03:07;49;46;
64627;PMS5003;59036;50.960;0.314;2022-11-14T09:05:35;48;46;
64627;PMS5003;59036;50.960;0.314;2022-11-14T09:08:02;42;41;
64627;PMS5003;59036;50.960;0.314;2022-11-14T09:10:30;50;48;
64627;PMS5003;59036;50.960;0.314;2022-11-14T09:12:59;44;42;
64627;PMS5003;59036;50.960;0.314;2022-11-14T09:15:27;44;39;
64627;PMS5003;59036;50.960;0.314;2022-11-14T09:17:54;48;46;
64627;PMS5003;59036;50.960;0.314;2022-11-14T09:20:23;41;39;
64627;PMS5003;59036;50.960;0.314;2022-11-14T09:22:51;45;43;
64627;PMS5003;59036;50.960;0.314;2022-11-14T09:25:19;44;43;
64627;PMS5003;59036;50.960;0.314;2022-11-14T09:27:46;42;42;
64627;PMS5003;59036;50.960;0.314;2022-11-14T09:30:13;40;38;
64627;PMS5003;59036;50.960;0.314;2022-11-14T09:32:41;46;45;
64627;PMS5003;59036;50.960;0.314;2022-11-14T09:35:08;38;36;
64627;PMS5003;59036;50.960;0.314;2022-11-14T09:37:35;44;42;
64627;PMS5003;59036;50.960;0.314;2022-11-14T09:40:03;39;37;
64627;PMS5003;59036;50.960;0.314;2022-11-14T09:42:36;42;40;
64627;PMS5003;59036;50.960;0.314;2022-11-14T09:45:20;41;40;
64627;PMS5003;59036;50.960;0.314;2022-11-14T09:47:47;42;41;
64627;PMS5003;59036;50.960;0.314;2022-11-14T09:50:18;43;42;
64627;PMS5003;59036;50.960;0.314;2022-11-14T09:52:51;45;42;
64627;PMS5003;59036;50.960;0.314;2022-11-14T09:55:22;40;38;
64627;PMS5003;59036;50.960;0.314;2022-11-14T09:57:54;42;41;
64627;PMS5003;59036;50.960;0.314;2022-11-14T10:00:23;41;38;
64627;PMS5003;59036;50.960;0.314;2022-11-14T10:02:55;42;38;
64627;PMS5003;59036;50.960;0.314;2022-11-14T10:05:41;40;39;
64627;PMS5003;59036;50.960;0.314;2022-11-14T10:08:22;44;44;
64627;PMS5003;59036;50.960;0.314;2022-11-14T10:11:00;47;43;
64627;PMS5003;59036;50.960;0.314;2022-11-14T10:13:37;38;37;
64627;PMS5003;59036;50.960;0.314;2022-11-14T10:16:17;39;38;
64627;PMS5003;59036;50.960;0.314;2022-11-14T10:19:02;39;37;
64627;PMS5003;59036;50.960;0.314;2022-11-14T10:21:45;42;39;
64627;PMS5003;59036;50.960;0.314;2022-11-14T10:24:30;44;44;
64627;PMS5003;59036;50.960;0.314;2022-11-14T10:27:13;44;42;
64627;PMS5003;59036;50.960;0.314;2022-11-14T10:29:49;40;39;
64627;PMS5003;59036;50.960;0.314;2022-11-14T10:32:33;38;37;
64627;PMS5003;59036;50.960;0.314;2022-11-14T10:35:20;35;34;
64627;PMS5003;59036;50.960;0.314;2022-11-14T10:37:54;35;35;
64627;PMS5003;59036;50.960;0.314;2022-11-14T10:40:28;38;37;
64627;PMS5003;59036;50.960;0.314;2022-11-14T10:43:04;30;29;
64627;PMS5003;59036;50.960;0.314;2022-11-14T10:45:41;32;29;
64627;PMS5003;59036;50.960;0.314;2022-11-14T10:48:13;29;28;
64627;PMS5003;59036;50.960;0.314;2022-11-14T10:50:46;36;33;
64627;PMS5003;59036;50.960;0.314;2022-11-14T10:53:20;29;27;
64627;PMS5003;59036;50.960;0.314;2022-11-14T10:55:52;26;25;
64627;PMS5003;59036;50.960;0.314;2022-11-14T10:58:20;26;26;
64627;PMS5003;59036;50.960;0.314;2022-11-14T11:00:48;27;26;
64627;PMS5003;59036;50.960;0.314;2022-11-14T11:03:16;25;24;
64627;PMS5003;59036;50.960;0.314;2022-11-14T11:05:44;26;26;
64627;PMS5003;59036;50.960;0.314;2022-11-14T11:08:18;21;20;
64627;PMS5003;59036;50.960;0.314;2022-11-14T11:10:46;19;18;
64627;PMS5003;59036;50.960;0.314;2022-11-14T11:13:13;23;21;
64627;PMS5003;59036;50.960;0.314;2022-11-14T11:15:57;21;20;
64627;PMS5003;59036;50.960;0.314;2022-11-14T11:18:27;22;21;
64627;PMS5003;59036;50.960;0.314;2022-11-14T11:21:05;23;21;
64627;PMS5003;59036;50.960;0.314;2022-11-14T11:23:47;19;18;
64627;PMS5003;59036;50.960;0.314;2022-11-14T11:26:17;19;19;
64627;PMS5003;59036;50.960;0.314;2022-11-14T11:28:59;19;19;
64627;PMS5003;59036;50.960;0.314;2022-11-14T11:31:47;15;15;
64627;PMS5003;59036;50.960;0.314;2022-11-14T11:34:17;19;18;
64627;PMS5003;59036;50.960;0.314;2022-11-14T11:36:49;16;16;
64627;PMS5003;59036;50.960;0.314;2022-11-14T11:39:22;15;14;
64627;PMS5003;59036;50.960;0.314;2022-11-14T11:41:52;18;17;
64627;PMS5003;59036;50.960;0.314;2022-11-14T11:44:24;18;18;
64627;PMS5003;59036;50.960;0.314;2022-11-14T11:47:00;17;17;
64627;PMS5003;59036;50.960;0.314;2022-11-14T11:49:34;17;17;
64627;PMS5003;59036;50.960;0.314;2022-11-14T11:52:09;14;14;
64627;PMS5003;59036;50.960;0.314;2022-11-14T11:54:45;18;15;
64627;PMS5003;59036;50.960;0.314;2022-11-14T11:57:21;16;16;
64627;PMS5003;59036;50.960;0.314;2022-11-14T11:59:55;17;16;
64627;PMS5003;59036;50.960;0.314;2022-11-14T12:02:28;21;20;
64627;PMS5003;59036;50.960;0.314;2022-11-14T12:04:56;22;20;
64627;PMS5003;59036;50.960;0.314;2022-11-14T12:07:29;20;20;
64627;PMS5003;59036;50.960;0.314;2022-11-14T12:10:04;14;14;
64627;PMS5003;59036;50.960;0.314;2022-11-14T12:12:47;21;20;
64627;PMS5003;59036;50.960;0.314;2022-11-14T12:15:30;26;25;
64627;PMS5003;59036;50.960;0.314;2022-11-14T12:18:14;26;25;
64627;PMS5003;59036;50.960;0.314;2022-11-14T12:21:02;24;23;
64627;PMS5003;59036;50.960;0.314;2022-11-14T12:23:49;31;30;
64627;PMS5003;59036;50.960;0.314;2022-11-14T12:26:32;28;25;
64627;PMS5003;59036;50.960;0.314;2022-11-14T12:29:18;31;31;
64627;PMS5003;59036;50.960;0.314;2022-11-14T12:31:57;29;27;
64627;PMS5003;59036;50.960;0.314;2022-11-14T12:34:31;26;25;
64627;PMS5003;59036;50.960;0.314;2022-11-14T12:37:06;25;25;
64627;PMS5003;59036;50.960;0.314;2022-11-14T12:39:35;26;25;
64627;PMS5003;59036;50.960;0.314;2022-11-14T12:42:03;26;25;
64627;PMS5003;59036;50.960;0.314;2022-11-14T12:44:34;27;26;
64627;PMS5003;59036;50.960;0.314;2022-11-14T12:47:12;27;27;
64627;PMS5003;59036;50.960;0.314;2022-11-14T12:49:59;29;26;
64627;PMS5003;59036;50.960;0.314;2022-11-14T12:52:40;27;27;
64627;PMS5003;59036;50.960;0.314;2022-11-14T12:55:51;27;26;
64627;PMS5003;59036;50.960;0.314;2022-11-14T12:58:21;34;32;
64627;PMS5003;59036;50.960;0.314;2022-11-14T13:01:04;28;28;
64627;PMS5003;59036;50.960;0.314;2022-11-14T13:03:48;28;27;
64627;PMS5003;59036;50.960;0.314;2022-11-14T13:06:29;26;25;
64627;PMS5003;59036;50.960;0.314;2022-11-14T13:10:12;24;23;
64627;PMS5003;59036;50.960;0.314;2022-11-14T13:12:55;26;25;
64627;PMS5003;59036;50.960;0.314;2022-11-14T13:15:26;28;25;
64627;PMS5003;59036;50.960;0.314;2022-11-14T13:18:07;26;25;
64627;PMS5003;59036;50.960;0.314;2022-11-14T13:20:40;25;24;
64627;PMS5003;59036;50.960;0.314;2022-11-14T13:23:34;24;24;
64627;PMS5003;59036;50.960;0.314;2022-11-14T13:26:52;26;25;
64627;PMS5003;59036;50.960;0.314;2022-11-14T13:29:52;24;23;
64627;PMS5003;59036;50.960;0.314;2022-11-14T13:32:53;22;22;
64627;PMS5003;59036;50.960;0.314;2022-11-14T13:35:22;22;22;
64627;PMS5003;59036;50.960;0.314;2022-11-14T13:38:05;21;21;
64627;PMS5003;59036;50.960;0.314;2022-11-14T13:41:10;20;19;
64627;PMS5003;59036;50.960;0.314;2022-11-14T13:42:26;20;19;
64627;PMS5003;59036;50.960;0.314;2022-11-14T13:45:16;23;23;
64627;PMS5003;59036;50.960;0.314;2022-11-14T13:48:05;24;24;
64627;PMS5003;59036;50.960;0.314;2022-11-14T13:50:48;24;23;
64627;PMS5003;59036;50.960;0.314;2022-11-14T13:53:21;32;31;
64627;PMS5003;59036;50.960;0.314;2022-11-14T13:55:54;25;24;
64627;PMS5003;59036;50.960;0.314;2022-11-14T13:58:30;25;23;
64627;PMS5003;59036;50.960;0.314;2022-11-14T14:01:09;25;24;
64627;PMS5003;59036;50.960;0.314;2022-11-14T14:03:52;26;26;
64627;PMS5003;59036;50.960;0.314;2022-11-14T14:06:33;26;25;
64627;PMS5003;59036;50.960;0.314;2022-11-14T14:09:17;34;32;
64627;PMS5003;59036;50.960;0.314;2022-11-14T14:11:57;32;31;
64627;PMS5003;59036;50.960;0.314;2022-11-14T14:14:38;30;28;
64627;PMS5003;59036;50.960;0.314;2022-11-14T14:17:19;29;28;
64627;PMS5003;59036;50.960;0.314;2022-11-14T14:19:56;28;28;
64627;PMS5003;59036;50.960;0.314;2022-11-14T14:22:33;36;34;
64627;PMS5003;59036;50.960;0.314;2022-11-14T14:25:08;24;24;
64627;PMS5003;59036;50.960;0.314;2022-11-14T14:27:48;26;25;
64627;PMS5003;59036;50.960;0.314;2022-11-14T14:30:24;27;25;
64627;PMS5003;59036;50.960;0.314;2022-11-14T14:33:09;24;23;
64627;PMS5003;59036;50.960;0.314;2022-11-14T14:35:38;29;27;
64627;PMS5003;59036;50.960;0.314;2022-11-14T14:38:20;29;28;
64627;PMS5003;59036;50.960;0.314;2022-11-14T14:40:50;31;29;
64627;PMS5003;59036;50.960;0.314;2022-11-14T14:43:22;25;25;
64627;PMS5003;59036;50.960;0.314;2022-11-14T14:45:53;30;29;
64627;PMS5003;59036;50.960;0.314;2022-11-14T14:48:22;27;26;
64627;PMS5003;59036;50.960;0.314;2022-11-14T14:50:53;26;25;
64627;PMS5003;59036;50.960;0.314;2022-11-14T14:53:22;24;22;
64627;PMS5003;59036;50.960;0.314;2022-11-14T14:55:53;28;27;
64627;PMS5003;59036;50.960;0.314;2022-11-14T14:58:23;24;24;
64627;PMS5003;59036;50.960;0.314;2022-11-14T15:00:52;29;28;
64627;PMS5003;59036;50.960;0.314;2022-11-14T15:03:23;26;25;
64627;PMS5003;59036;50.960;0.314;2022-11-14T15:05:56;24;24;
64627;PMS5003;59036;50.960;0.314;2022-11-14T15:08:24;20;19;
64627;PMS5003;59036;50.960;0.314;2022-11-14T15:10:54;21;21;
64627;PMS5003;59036;50.960;0.314;2022-11-14T15:13:24;23;22;
64627;PMS5003;59036;50.960;0.314;2022-11-14T15:15:54;24;24;
64627;PMS5003;59036;50.960;0.314;2022-11-14T15:18:23;24;22;
64627;PMS5003;59036;50.960;0.314;2022-11-14T15:21:09;29;29;
64627;PMS5003;59036;50.960;0.314;2022-11-14T15:23:40;29;29;
64627;PMS5003;59036;50.960;0.314;2022-11-14T15:26:16;29;29;
64627;PMS5003;59036;50.960;0.314;2022-11-14T15:28:44;27;27;
64627;PMS5003;59036;50.960;0.314;2022-11-14T15:31:17;33;33;
64627;PMS5003;59036;50.960;0.314;2022-11-14T15:33:59;30;29;
64627;PMS5003;59036;50.960;0.314;2022-11-14T15:36:28;24;23;
64627;PMS5003;59036;50.960;0.314;2022-11-14T15:38:58;26;25;
64627;PMS5003;59036;50.960;0.314;2022-11-14T15:41:27;32;31;
64627;PMS5003;59036;50.960;0.314;2022-11-14T15:43:55;31;30;
64627;PMS5003;59036;50.960;0.314;2022-11-14T15:46:25;22;22;
64627;PMS5003;59036;50.960;0.314;2022-11-14T15:49:06;26;24;
64627;PMS5003;59036;50.960;0.314;2022-11-14T15:51:39;24;24;
64627;PMS5003;59036;50.960;0.314;2022-11-14T15:54:25;26;25;
64627;PMS5003;59036;50.960;0.314;2022-11-14T15:56:55;24;23;
64627;PMS5003;59036;50.960;0.314;2022-11-14T15:59:23;27;25;
64627;PMS5003;59036;50.960;0.314;2022-11-14T16:01:51;27;26;
64627;PMS5003;59036;50.960;0.314;2022-11-14T16:04:24;25;24;
64627;PMS5003;59036;50.960;0.314;2022-11-14T16:06:55;26;26;
64627;PMS5003;59036;50.960;0.314;2022-11-14T16:09:23;29;28;
64627;PMS5003;59036;50.960;0.314;2022-11-14T16:11:50;31;29;
64627;PMS5003;59036;50.960;0.314;2022-11-14T16:14:17;30;30;
64627;PMS5003;59036;50.960;0.314;2022-11-14T16:16:44;31;29;
64627;PMS5003;59036;50.960;0.314;2022-11-14T16:19:12;27;27;
64627;PMS5003;59036;50.960;0.314;2022-11-14T16:21:41;29;29;
64627;PMS5003;59036;50.960;0.314;2022-11-14T16:24:12;33;33;
64627;PMS5003;59036;50.960;0.314;2022-11-14T16:26:40;33;32;
64627;PMS5003;59036;50.960;0.314;2022-11-14T16:29:07;31;31;
64627;PMS5003;59036;50.960;0.314;2022-11-14T16:31:34;28;27;
64627;PMS5003;59036;50.960;0.314;2022-11-14T16:34:02;28;28;
64627;PMS5003;59036;50.960;0.314;2022-11-14T16:36:30;28;28;
64627;PMS5003;59036;50.960;0.314;2022-11-14T16:38:59;33;31;
64627;PMS5003;59036;50.960;0.314;2022-11-14T16:41:27;28;28;
64627;PMS5003;59036;50.960;0.314;2022-11-14T16:43:55;32;30;